createdAt,value
2022-11-22T00:00:14.534Z,0.00
2022-11-22T00:01:14.522Z,0.00
2022-11-22T00:02:14.535Z,0.00
2022-11-22T00:03:14.485Z,0.00
2022-11-22T00:04:14.473Z,0.00
2022-11-22T00:05:14.487Z,0.00
2022-11-22T00:06:14.522Z,0.00
2022-11-22T00:07:14.586Z,0.00
2022-11-22T00:08:14.440Z,0.00
2022-11-22T00:09:14.428Z,0.00
2022-11-22T00:10:14.411Z,0.00
2022-11-22T00:11:14.398Z,0.00
2022-11-22T00:12:14.384Z,0.00
2022-11-22T00:13:14.392Z,0.00
2022-11-22T00:14:14.363Z,0.00
2022-11-22T00:15:14.386Z,0.00
2022-11-22T00:16:14.343Z,0.00
2022-11-22T00:17:14.334Z,0.00
2022-11-22T00:18:14.324Z,0.00
2022-11-22T00:19:14.331Z,0.00
2022-11-22T00:20:14.328Z,0.00
2022-11-22T00:21:14.332Z,0.00
2022-11-22T00:22:14.283Z,0.00
2022-11-22T00:23:14.285Z,0.00
2022-11-22T00:24:14.280Z,0.00
2022-11-22T00:25:14.286Z,0.00
2022-11-22T00:26:14.242Z,0.00
2022-11-22T00:27:14.246Z,0.00
2022-11-22T00:28:14.213Z,0.00
2022-11-22T00:29:14.217Z,0.00
2022-11-22T00:30:14.202Z,0.00
2022-11-22T00:31:14.182Z,0.00
2022-11-22T00:32:14.167Z,0.00
2022-11-22T00:33:14.174Z,0.00
2022-11-22T00:34:14.160Z,0.00
2022-11-22T00:35:14.154Z,0.00
2022-11-22T00:36:14.140Z,0.00
2022-11-22T00:37:14.137Z,0.00
2022-11-22T00:38:14.106Z,0.00
2022-11-22T00:39:14.122Z,0.00
2022-11-22T00:40:14.104Z,0.00
2022-11-22T00:41:14.089Z,0.00
2022-11-22T00:42:14.070Z,0.00
2022-11-22T00:43:14.053Z,0.00
2022-11-22T00:44:14.050Z,0.00
2022-11-22T00:47:06.332Z,0.00
2022-11-22T00:48:06.339Z,0.00
2022-11-22T00:49:06.299Z,0.00
2022-11-22T00:50:06.292Z,0.00
2022-11-22T00:51:06.296Z,0.00
2022-11-22T00:52:06.285Z,0.00
2022-11-22T00:53:06.281Z,0.00
2022-11-22T00:54:06.260Z,0.00
2022-11-22T00:55:06.252Z,0.00
2022-11-22T00:56:06.246Z,0.00
2022-11-22T00:57:06.223Z,0.00
2022-11-22T00:58:06.218Z,0.00
2022-11-22T00:59:06.193Z,0.00
2022-11-22T01:00:06.189Z,0.00
2022-11-22T01:01:06.266Z,0.00
2022-11-22T01:02:06.175Z,0.00
2022-11-22T01:03:06.150Z,0.00
2022-11-22T01:04:06.140Z,0.00
2022-11-22T01:05:06.133Z,0.00
2022-11-22T01:06:06.149Z,0.00
2022-11-22T01:07:06.173Z,0.00
2022-11-22T01:08:06.098Z,0.00
2022-11-22T01:09:06.105Z,0.00
2022-11-22T01:10:06.103Z,0.00
2022-11-22T01:11:06.061Z,0.00
2022-11-22T01:12:06.067Z,0.00
2022-11-22T01:13:06.054Z,0.00
2022-11-22T01:14:06.057Z,0.00
2022-11-22T01:15:06.054Z,0.00
2022-11-22T01:16:06.013Z,0.00
2022-11-22T01:17:05.997Z,0.00
2022-11-22T01:18:06.016Z,0.00
2022-11-22T01:19:05.976Z,0.00
2022-11-22T01:20:05.972Z,0.00
2022-11-22T01:21:05.964Z,0.00
2022-11-22T01:22:05.970Z,0.00
2022-11-22T01:23:05.945Z,0.00
2022-11-22T01:24:05.931Z,0.00
2022-11-22T01:25:05.948Z,0.00
2022-11-22T01:26:05.906Z,0.00
2022-11-22T01:27:05.906Z,0.00
2022-11-22T01:28:05.898Z,0.00
2022-11-22T01:29:05.868Z,0.00
2022-11-22T01:30:05.860Z,0.00
2022-11-22T01:31:05.858Z,0.00
2022-11-22T01:32:05.856Z,0.00
2022-11-22T01:33:05.852Z,0.00
2022-11-22T01:34:05.825Z,0.00
2022-11-22T01:35:05.816Z,0.00
2022-11-22T01:36:05.823Z,0.00
2022-11-22T01:37:05.792Z,0.00
2022-11-22T01:38:05.774Z,0.00
2022-11-22T01:39:05.770Z,0.00
2022-11-22T01:40:05.752Z,0.00
2022-11-22T01:41:05.780Z,0.00
2022-11-22T01:42:05.734Z,0.00
2022-11-22T01:43:05.723Z,0.00
2022-11-22T01:44:05.716Z,0.00
2022-11-22T01:45:05.696Z,0.00
2022-11-22T01:46:05.699Z,0.00
2022-11-22T01:47:05.671Z,0.00
2022-11-22T01:48:05.685Z,0.00
2022-11-22T01:49:05.651Z,0.00
2022-11-22T01:50:05.654Z,0.00
2022-11-22T01:51:05.630Z,0.00
2022-11-22T01:52:05.623Z,0.00
2022-11-22T01:53:05.625Z,0.00
2022-11-22T01:54:05.619Z,0.00
2022-11-22T01:55:05.585Z,0.00
2022-11-22T01:56:05.579Z,0.00
2022-11-22T01:57:05.589Z,0.00
2022-11-22T01:58:05.574Z,0.00
2022-11-22T01:59:05.558Z,0.00
2022-11-22T02:00:05.536Z,0.00
2022-11-22T02:01:05.566Z,0.00
2022-11-22T02:02:05.514Z,0.00
2022-11-22T02:03:05.503Z,0.00
2022-11-22T02:04:05.505Z,0.00
2022-11-22T02:05:05.484Z,0.00
2022-11-22T02:06:05.471Z,0.00
2022-11-22T02:07:05.549Z,0.00
2022-11-22T02:08:05.461Z,0.00
2022-11-22T02:09:05.446Z,0.00
2022-11-22T02:10:05.427Z,0.00
2022-11-22T02:11:05.418Z,0.00
2022-11-22T02:12:05.421Z,0.00
2022-11-22T02:13:05.413Z,0.00
2022-11-22T02:14:05.387Z,0.00
2022-11-22T02:15:05.382Z,0.00
2022-11-22T02:16:05.383Z,0.00
2022-11-22T02:17:05.387Z,0.00
2022-11-22T02:18:05.343Z,0.00
2022-11-22T02:19:05.355Z,0.00
2022-11-22T02:20:05.984Z,0.00
2022-11-22T02:21:05.368Z,0.00
2022-11-22T02:22:05.354Z,0.00
2022-11-22T02:23:05.365Z,0.00
2022-11-22T02:24:05.279Z,0.00
2022-11-22T02:25:05.270Z,0.00
2022-11-22T02:26:05.261Z,0.00
2022-11-22T02:27:05.246Z,0.00
2022-11-22T02:28:05.255Z,0.00
2022-11-22T02:29:05.290Z,0.00
2022-11-22T02:30:05.227Z,0.00
2022-11-22T02:31:05.197Z,0.00
2022-11-22T02:32:05.201Z,0.00
2022-11-22T02:33:05.185Z,0.00
2022-11-22T02:34:05.188Z,0.00
2022-11-22T02:35:05.154Z,0.00
2022-11-22T02:36:05.179Z,0.00
2022-11-22T02:37:05.153Z,0.00
2022-11-22T02:38:05.142Z,0.00
2022-11-22T02:39:05.111Z,0.00
2022-11-22T02:40:05.110Z,0.00
2022-11-22T02:41:05.110Z,0.00
2022-11-22T02:42:05.101Z,0.00
2022-11-22T02:43:05.087Z,0.00
2022-11-22T02:44:05.068Z,0.00
2022-11-22T02:45:05.068Z,0.00
2022-11-22T02:46:05.068Z,0.00
2022-11-22T02:48:54.714Z,0.00
2022-11-22T02:49:54.705Z,0.00
2022-11-22T02:50:54.723Z,0.00
2022-11-22T02:51:54.684Z,0.00
2022-11-22T02:52:54.671Z,0.00
2022-11-22T02:53:54.682Z,0.00
2022-11-22T02:54:54.649Z,0.00
2022-11-22T02:55:54.640Z,0.00
2022-11-22T02:56:54.630Z,0.00
2022-11-22T02:57:54.620Z,0.00
2022-11-22T02:58:54.622Z,0.00
2022-11-22T02:59:54.603Z,0.00
2022-11-22T03:00:54.663Z,0.00
2022-11-22T03:01:58.635Z,0.00
2022-11-22T03:02:55.560Z,0.00
2022-11-22T03:03:54.598Z,0.00
2022-11-22T03:04:54.552Z,0.00
2022-11-22T03:05:54.545Z,0.00
2022-11-22T03:06:54.547Z,0.00
2022-11-22T03:07:54.619Z,0.00
2022-11-22T03:08:56.554Z,0.00
2022-11-22T03:09:54.518Z,0.00
2022-11-22T03:10:54.480Z,0.00
2022-11-22T03:11:54.479Z,0.00
2022-11-22T03:12:54.502Z,0.00
2022-11-22T03:13:54.446Z,0.00
2022-11-22T03:14:54.433Z,0.00
2022-11-22T03:15:54.435Z,0.00
2022-11-22T03:16:54.453Z,0.00
2022-11-22T03:17:54.401Z,0.00
2022-11-22T03:18:54.402Z,0.00
2022-11-22T03:19:54.394Z,0.00
2022-11-22T03:20:54.369Z,0.00
2022-11-22T03:21:54.404Z,0.00
2022-11-22T03:22:54.368Z,0.00
2022-11-22T03:23:54.339Z,0.00
2022-11-22T03:24:54.323Z,0.00
2022-11-22T03:25:54.316Z,0.00
2022-11-22T03:26:54.317Z,0.00
2022-11-22T03:27:54.318Z,0.00
2022-11-22T03:28:54.311Z,0.00
2022-11-22T03:29:54.274Z,0.00
2022-11-22T03:30:54.256Z,0.00
2022-11-22T03:31:54.261Z,0.00
2022-11-22T03:32:54.290Z,0.00
2022-11-22T03:33:54.228Z,0.00
2022-11-22T03:34:54.221Z,0.00
2022-11-22T03:35:54.207Z,0.00
2022-11-22T03:36:54.205Z,0.00
2022-11-22T03:37:54.197Z,0.00
2022-11-22T03:38:54.198Z,0.00
2022-11-22T03:39:54.164Z,0.00
2022-11-22T03:40:54.214Z,0.00
2022-11-22T03:41:54.140Z,0.00
2022-11-22T03:42:54.170Z,0.00
2022-11-22T03:43:54.121Z,0.00
2022-11-22T03:44:54.104Z,0.00
2022-11-22T03:45:54.119Z,0.00
2022-11-22T03:46:54.093Z,0.00
2022-11-22T03:47:54.079Z,0.00
2022-11-22T03:48:54.097Z,0.00
2022-11-22T03:49:54.063Z,0.00
2022-11-22T03:50:54.052Z,0.00
2022-11-22T03:51:54.041Z,0.00
2022-11-22T03:52:54.027Z,0.00
2022-11-22T03:53:54.015Z,0.00
2022-11-22T03:54:54.011Z,0.00
2022-11-22T03:55:54.005Z,0.00
2022-11-22T03:56:53.989Z,0.00
2022-11-22T03:57:53.970Z,0.00
2022-11-22T03:58:53.960Z,0.00
2022-11-22T03:59:53.967Z,0.00
2022-11-22T04:00:53.933Z,0.00
2022-11-22T04:01:53.970Z,0.00
2022-11-22T04:02:53.927Z,0.00
2022-11-22T04:03:53.915Z,0.00
2022-11-22T04:04:53.937Z,0.00
2022-11-22T04:05:53.884Z,0.00
2022-11-22T04:06:53.879Z,0.00
2022-11-22T04:07:53.927Z,0.00
2022-11-22T04:08:53.939Z,0.00
2022-11-22T04:09:53.845Z,0.00
2022-11-22T04:10:53.838Z,0.00
2022-11-22T04:11:53.818Z,0.00
2022-11-22T04:12:53.801Z,0.00
2022-11-22T04:13:53.792Z,0.00
2022-11-22T04:14:53.816Z,0.00
2022-11-22T04:15:53.773Z,0.00
2022-11-22T04:16:53.787Z,0.00
2022-11-22T04:17:53.765Z,0.00
2022-11-22T04:18:53.737Z,0.00
2022-11-22T04:19:53.729Z,0.00
2022-11-22T04:20:53.748Z,0.00
2022-11-22T04:21:53.731Z,0.00
2022-11-22T04:22:53.714Z,0.00
2022-11-22T04:23:53.685Z,0.00
2022-11-22T04:24:53.683Z,0.00
2022-11-22T04:25:53.663Z,0.00
2022-11-22T04:26:53.655Z,0.00
2022-11-22T04:27:53.644Z,0.00
2022-11-22T04:29:09.118Z,0.00
2022-11-22T04:29:54.618Z,0.00
2022-11-22T04:30:53.622Z,0.00
2022-11-22T04:31:53.598Z,0.00
2022-11-22T04:32:53.595Z,0.00
2022-11-22T04:33:53.584Z,0.00
2022-11-22T04:34:53.568Z,0.00
2022-11-22T04:35:53.586Z,0.00
2022-11-22T04:36:53.560Z,0.00
2022-11-22T04:37:53.579Z,0.00
2022-11-22T04:38:53.527Z,0.00
2022-11-22T04:39:53.533Z,0.00
2022-11-22T04:40:53.521Z,0.00
2022-11-22T04:41:53.493Z,0.00
2022-11-22T04:42:53.493Z,0.00
2022-11-22T04:43:53.487Z,0.00
2022-11-22T04:44:53.455Z,0.00
2022-11-22T04:45:53.451Z,0.00
2022-11-22T04:46:53.439Z,0.00
2022-11-22T04:47:53.483Z,0.00
2022-11-22T04:49:02.780Z,0.00
2022-11-22T04:49:53.406Z,0.00
2022-11-22T04:50:53.395Z,0.00
2022-11-22T04:51:53.399Z,0.00
2022-11-22T04:52:53.387Z,0.00
2022-11-22T04:53:53.365Z,0.00
2022-11-22T04:54:53.346Z,0.00
2022-11-22T04:55:53.339Z,0.00
2022-11-22T04:56:53.342Z,0.00
2022-11-22T04:57:59.161Z,0.00
2022-11-22T04:58:54.309Z,0.00
2022-11-22T04:59:53.307Z,0.00
2022-11-22T05:00:53.456Z,0.00
2022-11-22T05:01:53.287Z,0.00
2022-11-22T05:02:53.269Z,0.00
2022-11-22T05:03:53.269Z,0.00
2022-11-22T05:04:53.244Z,0.00
2022-11-22T05:05:53.251Z,0.00
2022-11-22T05:06:53.236Z,0.00
2022-11-22T05:07:53.326Z,0.00
2022-11-22T05:08:53.235Z,0.00
2022-11-22T05:09:53.261Z,0.00
2022-11-22T05:10:53.190Z,0.00
2022-11-22T05:11:53.194Z,0.00
2022-11-22T05:12:53.152Z,0.00
2022-11-22T05:13:53.149Z,0.00
2022-11-22T05:14:53.133Z,0.00
2022-11-22T05:15:53.124Z,0.00
2022-11-22T05:16:53.143Z,0.00
2022-11-22T05:17:53.127Z,0.00
2022-11-22T05:18:53.118Z,0.00
2022-11-22T05:19:53.082Z,0.00
2022-11-22T05:20:53.088Z,0.00
2022-11-22T05:21:53.072Z,0.00
2022-11-22T05:22:53.049Z,0.00
2022-11-22T05:23:53.042Z,0.00
2022-11-22T05:24:53.047Z,0.00
2022-11-22T05:25:53.042Z,0.00
2022-11-22T05:26:53.007Z,0.00
2022-11-22T05:27:52.997Z,0.00
2022-11-22T05:28:53.008Z,0.00
2022-11-22T05:29:52.996Z,0.00
2022-11-22T05:30:52.964Z,0.00
2022-11-22T05:31:52.986Z,0.00
2022-11-22T05:32:52.955Z,0.00
2022-11-22T05:33:52.932Z,0.00
2022-11-22T05:34:52.957Z,0.00
2022-11-22T05:35:52.922Z,0.00
2022-11-22T05:36:52.899Z,0.00
2022-11-22T05:37:52.910Z,0.00
2022-11-22T05:38:52.878Z,0.00
2022-11-22T05:39:52.868Z,0.00
2022-11-22T05:40:52.888Z,0.00
2022-11-22T05:41:52.854Z,0.00
2022-11-22T05:42:52.838Z,0.00
2022-11-22T05:43:52.836Z,0.00
2022-11-22T05:44:52.841Z,0.00
2022-11-22T05:45:52.800Z,0.00
2022-11-22T05:46:52.792Z,0.00
2022-11-22T05:47:52.796Z,0.00
2022-11-22T05:48:52.794Z,0.00
2022-11-22T05:49:52.773Z,0.00
2022-11-22T05:50:52.760Z,0.00
2022-11-22T05:51:52.765Z,0.00
2022-11-22T05:52:52.758Z,0.00
2022-11-22T05:53:52.724Z,0.00
2022-11-22T05:54:52.719Z,0.00
2022-11-22T05:55:52.694Z,0.00
2022-11-22T05:56:52.703Z,0.00
2022-11-22T05:57:52.683Z,0.00
2022-11-22T05:58:52.681Z,0.00
2022-11-22T05:59:52.665Z,0.00
2022-11-22T06:00:52.673Z,0.00
2022-11-22T06:01:52.719Z,0.00
2022-11-22T06:02:52.622Z,0.00
2022-11-22T06:03:52.618Z,0.00
2022-11-22T06:04:52.614Z,0.00
2022-11-22T06:05:52.586Z,0.00
2022-11-22T06:06:52.577Z,0.00
2022-11-22T06:07:52.681Z,0.00
2022-11-22T06:08:52.573Z,0.00
2022-11-22T06:09:52.541Z,0.00
2022-11-22T06:10:52.537Z,0.00
2022-11-22T06:11:52.524Z,0.00
2022-11-22T06:12:52.534Z,0.00
2022-11-22T06:13:52.528Z,0.00
2022-11-22T06:14:52.492Z,0.00
2022-11-22T06:15:52.489Z,0.00
2022-11-22T06:16:52.482Z,0.00
2022-11-22T06:17:52.462Z,0.00
2022-11-22T06:18:52.489Z,0.00
2022-11-22T06:19:52.449Z,0.00
2022-11-22T06:20:52.433Z,0.00
2022-11-22T06:21:52.423Z,0.00
2022-11-22T06:22:52.409Z,0.00
2022-11-22T06:23:52.416Z,0.00
2022-11-22T06:24:52.384Z,4.00
2022-11-22T06:25:53.030Z,4.00
2022-11-22T06:26:52.370Z,4.00
2022-11-22T06:27:52.358Z,4.00
2022-11-22T06:28:52.391Z,8.00
2022-11-22T06:29:52.330Z,8.00
2022-11-22T06:30:52.320Z,8.00
2022-11-22T06:31:52.541Z,12.00
2022-11-22T06:32:52.432Z,12.00
2022-11-22T06:33:52.304Z,16.00
2022-11-22T06:34:52.318Z,16.00
2022-11-22T06:35:52.322Z,16.00
2022-11-22T06:36:52.288Z,20.00
2022-11-22T06:37:57.488Z,24.00
2022-11-22T06:38:53.232Z,24.00
2022-11-22T06:39:52.248Z,32.00
2022-11-22T06:40:52.998Z,36.00
2022-11-22T06:41:52.197Z,40.00
2022-11-22T06:42:52.240Z,44.00
2022-11-22T06:43:52.179Z,48.00
2022-11-22T06:44:52.207Z,48.00
2022-11-22T06:45:52.170Z,52.00
2022-11-22T06:46:52.146Z,56.00
2022-11-22T06:47:52.132Z,60.00
2022-11-22T06:48:52.143Z,60.00
2022-11-22T06:49:59.635Z,68.00
2022-11-22T06:50:52.130Z,72.00
2022-11-22T06:51:52.099Z,76.00
2022-11-22T06:52:52.081Z,76.00
2022-11-22T06:53:52.077Z,76.00
2022-11-22T06:54:52.134Z,76.00
2022-11-22T06:55:55.642Z,88.00
2022-11-22T06:56:53.038Z,96.00
2022-11-22T06:57:52.027Z,112.00
2022-11-22T06:58:52.028Z,128.00
2022-11-22T06:59:52.042Z,144.00
2022-11-22T07:00:52.044Z,156.00
2022-11-22T07:01:52.061Z,172.00
2022-11-22T07:02:51.978Z,184.00
2022-11-22T07:03:52.048Z,196.00
2022-11-22T07:05:23.343Z,220.00
2022-11-22T07:05:52.948Z,240.00
2022-11-22T07:06:52.081Z,260.00
2022-11-22T07:07:52.017Z,280.00
2022-11-22T07:08:51.934Z,304.00
2022-11-22T07:09:56.239Z,332.00
2022-11-22T07:10:51.897Z,360.00
2022-11-22T07:11:51.955Z,388.00
2022-11-22T07:12:51.902Z,424.00
2022-11-22T07:13:51.859Z,468.00
2022-11-22T07:14:51.862Z,512.00
2022-11-22T07:15:51.857Z,556.00
2022-11-22T07:16:51.895Z,608.00
2022-11-22T07:17:51.830Z,676.00
2022-11-22T07:18:51.863Z,748.00
2022-11-22T07:19:51.823Z,828.00
2022-11-22T07:20:51.849Z,908.00
2022-11-22T07:21:52.535Z,1004.00
2022-11-22T07:22:52.519Z,1108.00
2022-11-22T07:23:51.785Z,1208.00
2022-11-22T07:24:51.775Z,1312.00
2022-11-22T07:25:51.781Z,1412.00
2022-11-22T07:26:51.778Z,1524.00
2022-11-22T07:27:51.719Z,1648.00
2022-11-22T07:28:51.729Z,1784.00
2022-11-22T07:29:51.702Z,1940.00
2022-11-22T07:30:51.674Z,2124.00
2022-11-22T07:31:51.662Z,2348.00
2022-11-22T07:32:51.670Z,2552.00
2022-11-22T07:33:51.658Z,2916.00
2022-11-22T07:34:51.626Z,3076.00
2022-11-22T07:35:51.625Z,3404.00
2022-11-22T07:36:57.278Z,3900.00
2022-11-22T07:37:52.610Z,4988.00
2022-11-22T07:38:52.089Z,5616.00
2022-11-22T07:39:51.586Z,5456.00
2022-11-22T07:40:51.649Z,5864.00
2022-11-22T07:41:51.549Z,6168.00
2022-11-22T07:42:56.983Z,5888.00
2022-11-22T07:43:52.558Z,5736.00
2022-11-22T07:44:51.539Z,5156.00
2022-11-22T07:45:51.512Z,5232.00
2022-11-22T07:46:51.536Z,5164.00
2022-11-22T07:47:51.504Z,5136.00
2022-11-22T07:48:51.534Z,5216.00
2022-11-22T07:49:51.474Z,5392.00
2022-11-22T07:50:51.591Z,5384.00
2022-11-22T07:51:51.469Z,5620.00
2022-11-22T07:52:51.467Z,5436.00
2022-11-22T07:53:51.429Z,5668.00
2022-11-22T07:54:51.432Z,6488.00
2022-11-22T07:55:51.397Z,8652.00
2022-11-22T07:56:51.390Z,9200.00
2022-11-22T07:57:51.395Z,8672.00
2022-11-22T07:58:51.408Z,8848.00
2022-11-22T07:59:51.381Z,8960.00
2022-11-22T08:00:51.358Z,10008.00
2022-11-22T08:01:51.461Z,13756.00
2022-11-22T08:02:51.393Z,20608.00
2022-11-22T08:03:51.308Z,20256.00
2022-11-22T08:04:51.427Z,18688.00
2022-11-22T08:05:51.308Z,23488.00
2022-11-22T08:06:51.304Z,27712.00
2022-11-22T08:07:51.391Z,27904.00
2022-11-22T08:08:52.246Z,23520.00
2022-11-22T08:09:51.276Z,20576.00
2022-11-22T08:10:51.237Z,23936.00
2022-11-22T08:11:51.233Z,26880.00
2022-11-22T08:12:51.222Z,30112.00
2022-11-22T08:13:51.226Z,31264.00
2022-11-22T08:14:52.045Z,23680.00
2022-11-22T08:15:54.704Z,18016.00
2022-11-22T08:16:51.202Z,21408.00
2022-11-22T08:17:51.208Z,33728.00
2022-11-22T08:18:51.195Z,33760.00
2022-11-22T08:19:51.158Z,29408.00
2022-11-22T08:20:51.305Z,23296.00
2022-11-22T08:21:56.994Z,25440.00
2022-11-22T08:22:52.131Z,24896.00
2022-11-22T08:23:51.105Z,24800.00
2022-11-22T08:24:51.103Z,22816.00
2022-11-22T08:25:51.086Z,27200.00
2022-11-22T08:26:51.073Z,30528.00
2022-11-22T08:27:51.080Z,31392.00
2022-11-22T08:28:51.067Z,31200.00
2022-11-22T08:29:51.035Z,26656.00
2022-11-22T08:30:51.033Z,33120.00
2022-11-22T08:31:51.019Z,23712.00
2022-11-22T08:32:50.998Z,20960.00
2022-11-22T08:33:51.085Z,19392.00
2022-11-22T08:34:50.988Z,21376.00
2022-11-22T08:35:50.960Z,22976.00
2022-11-22T08:36:51.074Z,25024.00
2022-11-22T08:37:50.982Z,27680.00
2022-11-22T08:38:50.948Z,31776.00
2022-11-22T08:39:50.939Z,28128.00
2022-11-22T08:40:50.922Z,21504.00
2022-11-22T08:41:50.905Z,26240.00
2022-11-22T08:42:50.914Z,37760.00
2022-11-22T08:43:50.870Z,38528.00
2022-11-22T08:44:50.861Z,37120.00
2022-11-22T08:45:50.860Z,35584.00
2022-11-22T08:46:50.942Z,42656.00
2022-11-22T08:47:50.843Z,38080.00
2022-11-22T08:48:50.826Z,30816.00
2022-11-22T08:49:50.830Z,33248.00
2022-11-22T22:45:25.132Z,0.00
2022-11-22T22:46:25.022Z,0.00
2022-11-22T22:47:24.997Z,0.00
2022-11-22T22:48:24.973Z,0.00
2022-11-22T22:49:24.959Z,0.00
2022-11-22T22:50:24.953Z,0.00
2022-11-22T22:51:30.605Z,0.00
2022-11-22T22:52:25.927Z,0.00
2022-11-22T22:53:24.916Z,0.00
2022-11-22T22:54:24.914Z,0.00
2022-11-22T22:55:24.893Z,0.00
2022-11-22T22:56:24.900Z,0.00
2022-11-22T22:57:24.872Z,0.00
2022-11-22T22:58:24.867Z,0.00
2022-11-22T22:59:24.863Z,0.00
2022-11-22T23:00:24.869Z,0.00
2022-11-22T23:01:24.960Z,0.00
2022-11-22T23:02:24.833Z,0.00
2022-11-22T23:03:24.858Z,0.00
2022-11-22T23:04:24.823Z,0.00
2022-11-22T23:05:24.787Z,0.00
2022-11-22T23:06:24.792Z,0.00
2022-11-22T23:07:24.846Z,0.00
2022-11-22T23:08:24.753Z,0.00
2022-11-22T23:09:24.749Z,0.00
2022-11-22T23:10:24.743Z,0.00
2022-11-22T23:11:24.718Z,0.00
2022-11-22T23:12:24.712Z,0.00
2022-11-22T23:13:24.700Z,0.00
2022-11-22T23:14:24.704Z,0.00
2022-11-22T23:15:43.818Z,0.00
2022-11-22T23:16:25.666Z,0.00
2022-11-22T23:17:24.772Z,0.00
2022-11-22T23:18:24.648Z,0.00
2022-11-22T23:19:24.627Z,0.00
2022-11-22T23:20:24.631Z,0.00
2022-11-22T23:21:24.606Z,0.00
2022-11-22T23:22:26.041Z,0.00
2022-11-22T23:23:24.584Z,0.00
2022-11-22T23:24:24.589Z,0.00
2022-11-22T23:25:24.560Z,0.00
2022-11-22T23:26:24.552Z,0.00
2022-11-22T23:27:24.552Z,0.00
2022-11-22T23:28:24.568Z,0.00
2022-11-22T23:29:24.525Z,0.00
2022-11-22T23:30:24.508Z,0.00
2022-11-22T23:31:24.495Z,0.00
2022-11-22T23:32:24.500Z,0.00
2022-11-22T23:33:24.591Z,0.00
2022-11-22T23:34:24.487Z,0.00
2022-11-22T23:35:24.471Z,0.00
2022-11-22T23:36:24.449Z,0.00
2022-11-22T23:37:24.434Z,0.00
2022-11-22T23:38:24.420Z,0.00
2022-11-22T23:39:24.407Z,0.00
2022-11-22T23:40:24.411Z,0.00
2022-11-22T23:41:24.393Z,0.00
2022-11-22T23:42:24.378Z,0.00
2022-11-22T23:43:24.363Z,0.00
2022-11-22T23:44:24.359Z,0.00
2022-11-22T23:45:24.356Z,0.00
2022-11-22T23:46:24.345Z,0.00
2022-11-22T23:47:24.324Z,0.00
2022-11-22T23:48:24.311Z,0.00
2022-11-22T23:49:24.424Z,0.00
2022-11-22T23:50:24.356Z,0.00
2022-11-22T23:51:24.284Z,0.00
2022-11-22T23:52:24.305Z,0.00
2022-11-22T23:53:24.258Z,0.00
2022-11-22T23:54:24.264Z,0.00
2022-11-22T23:55:24.243Z,0.00
2022-11-22T23:56:24.225Z,0.00
2022-11-22T23:57:24.209Z,0.00
2022-11-22T23:58:24.201Z,0.00
2022-11-22T23:59:24.201Z,0.00
